Nacogdoches, TX

7:04 AM CDT on May 03, 2015 (GMT -0500)
Cherokee County | | Change Station
CLOSE
Current Station
Airport
Location: Jacksonville,
Elevation: 676 ft
Nearby Weather Stations
Active Advisory: Flood Warning

Elev 676 ft 31.87 °N, 95.22 °W | Updated 9 minutes ago

Clear
Clear
61 °F
Feels Like 61 °F
N
5
Wind Variable Wind from SSW

Today
High -- | Low -- °F
--% Chance of Precip.
Yesterday
High -- | Low -- °F
Precip. -- in
6:31 AM 7:59 PM
Full, 100% visible
Pressure 30.06 in
Visibility 10.0 miles
Clouds Clear
Dew Point 56 °F
Humidity 82%
Rainfall 0.00 in
Snow Depth Not available.
UV 0 out of 12
Pollen 8.00 out of 12
Air Quality Not available.
Flu Activity Sporadic
METAR KJSO 031155Z AUTO 20004KT 10SM CLR 16/13 A3006 RMK AO2 T01630133

More Conditions Fewer Conditions

Pressure 30.06 in
Visibility 10.0 miles
Clouds Clear
Dew Point 56 °F
Humidity 82%
Rainfall 0.00 in
Snow Depth Not available.
UV 0 out of 12
Pollen 8.00 out of 12
Air Quality Not available.
Flu Activity Sporadic
METAR KJSO 031155Z AUTO 20004KT 10SM CLR 16/13 A3006 RMK AO2 T01630133

More Conditions Fewer Conditions

Nepal has a long way to go to dig out and rebuild from a devastating earthquake. We have teamed up with several charities and organizations to make contributing to the relief effort as easy as possible.
How you can help: Portlight Strategies | Red Cross

10-Day Weather Forecast

Almanac

Astronomy

May. 03, 2015 Rise Set
Actual Time
Civil Twilight
Nautical Twilight
Astronomical Twilight
Moon
Length of Visible Light
Length of Day
Tomorrow will be .
, % of the Moon is Illuminated

Today's Extremes

State Highs State Lows

Community

WunderPhotos

Upload Photos

1,818,197 photos uploaded!

WunderBlogs® & News

Nearby

Air Quality

  Air Quality AQ Index Pollutant
Not available.

Snow Depth

Station Depth Elevation

Earthquake Activity

City Distance Mag. Time & Date
Minimum magnitude displayed is 2.5.

Coastal Water Temperatures

Place Temperature

Stations

Nearby Weather Stations

Station Location Temp. Windchill Dew Point Humidity Wind Precip. Elev Updated Type
                   
Flood Warning
Statement as of 11:56 AM CDT on May 02, 2015

The Flood Warning continues for
the Angelina river near Lufkin.
* Until further notice... or until the warning is cancelled.
* At 7:00 am Saturday the stage was 12.1 feet.
* Minor flooding is occurring and minor flooding is forecast.
* Flood stage is 10.0 feet.
* Forecast... the river will continue to fall to a stage of 11.8 feet
by tomorrow morning.
* Impact... at 12.0 feet... lowland flooding will continue to slowly
diminish over the next several days.


Lat... Lon 3144 9462 3145 9474 3148 9482 3150 9482 3146 9466